Time;durP1;ratioP1;P1;durP2;ratioP2;P2;SDS_P1;SDS_P2;PMS_P1;PMS_P2;Temp;Humidity;BMP_temperature;BMP_pressure;BME280_temperature;BME280_humidity;BME280_pressure;Samples;Min_cycle;Max_cycle;Signal;HPM_P1;HPM_P2
2024/04/18 00:01:41;;;;;;;2.60;2.00;;;;;;;20.13;56.56;96838.66;5441816;26;20272;-27
2024/04/18 00:04:07;;;;;;;2.60;2.10;;;;;;;20.14;56.51;96840.38;5432982;26;20246;-28
2024/04/18 00:06:34;;;;;;;2.37;1.90;;;;;;;20.14;56.56;96837.81;5420414;26;20223;-24
2024/04/18 00:09:01;;;;;;;3.77;1.70;;;;;;;20.12;56.56;96832.66;5433943;26;20241;-26
2024/04/18 00:11:28;;;;;;;3.03;1.90;;;;;;;20.13;55.97;96842.03;5438934;26;20331;-28
2024/04/18 00:13:55;;;;;;;1.97;1.60;;;;;;;20.12;56.37;96840.28;5424276;26;20576;-28
2024/04/18 00:16:21;;;;;;;2.63;1.70;;;;;;;20.14;56.43;96840.38;5438979;26;20608;-26
2024/04/18 00:18:48;;;;;;;2.47;2.00;;;;;;;20.11;56.47;96838.59;5427730;26;20331;-28
2024/04/18 00:21:15;;;;;;;2.10;1.77;;;;;;;20.14;55.86;96840.38;5429739;26;20221;-28
2024/04/18 00:23:43;;;;;;;2.70;1.70;;;;;;;20.13;56.24;96836.09;5450893;26;20323;-26
2024/04/18 00:26:09;;;;;;;1.70;1.60;;;;;;;20.13;56.17;96836.09;5441113;26;20229;-29
2024/04/18 00:28:36;;;;;;;2.27;1.83;;;;;;;20.13;56.68;96841.19;5434380;26;20231;-27
2024/04/18 00:31:03;;;;;;;2.00;1.70;;;;;;;20.11;55.99;96832.59;5421627;26;20296;-29
2024/04/18 00:33:29;;;;;;;2.20;2.00;;;;;;;20.11;56.15;96836.03;5425357;26;20230;-25
2024/04/18 00:35:56;;;;;;;2.87;1.67;;;;;;;20.05;56.48;96828.22;5439723;26;20585;-26
2024/04/18 00:38:23;;;;;;;2.13;1.80;;;;;;;20.13;56.56;96847.16;5425558;26;20239;-29
2024/04/18 00:40:49;;;;;;;1.97;1.70;;;;;;;20.13;55.88;96842.03;5440768;26;20233;-29
2024/04/18 00:43:18;;;;;;;2.20;1.70;;;;;;;20.14;56.02;96846.34;5444489;26;20233;-26
2024/04/18 00:45:45;;;;;;;2.00;1.80;;;;;;;20.15;56.41;96847.19;5425760;26;20270;-26
2024/04/18 00:48:12;;;;;;;2.30;1.73;;;;;;;20.14;56.53;96846.34;5445345;26;20290;-27
2024/04/18 00:50:38;;;;;;;2.37;2.10;;;;;;;20.12;56.15;96847.06;5405633;26;20596;-26
2024/04/18 00:53:05;;;;;;;3.10;2.13;;;;;;;20.13;56.42;96848.84;5441602;26;20264;-27
2024/04/18 00:55:32;;;;;;;1.87;1.73;;;;;;;20.13;56.21;96849.69;5421822;26;20233;-29
2024/04/18 00:57:58;;;;;;;2.00;1.90;;;;;;;20.13;55.81;96849.69;5405003;26;20270;-32
2024/04/18 01:00:25;;;;;;;3.33;1.80;;;;;;;20.12;55.99;96852.19;5442067;26;20281;-26
2024/04/18 01:02:52;;;;;;;2.83;2.00;;;;;;;20.13;56.55;96854.78;5436478;26;20237;-26
2024/04/18 01:05:18;;;;;;;1.70;1.60;;;;;;;20.13;56.09;96851.41;5427456;26;20604;-27
2024/04/18 01:07:45;;;;;;;1.90;1.80;;;;;;;20.13;56.31;96854.78;5434183;26;20273;-27
2024/04/18 01:10:12;;;;;;;2.13;1.70;;;;;;;20.12;56.08;96854.72;5436565;26;20273;-27
2024/04/18 01:12:38;;;;;;;1.97;1.70;;;;;;;20.12;56.15;96853.03;5451093;26;20233;-28
2024/04/18 01:15:05;;;;;;;2.13;1.80;;;;;;;20.13;55.91;96853.97;5435775;26;20237;-27
2024/04/18 01:17:32;;;;;;;2.13;1.90;;;;;;;20.11;56.36;96851.34;5427301;26;20577;-26
2024/04/18 01:19:59;;;;;;;2.53;1.93;;;;;;;20.13;56.24;96857.34;5440254;26;20295;-28
2024/04/18 01:22:25;;;;;;;2.33;1.87;;;;;;;20.09;56.13;96847.00;5437061;26;20245;-27
2024/04/18 01:24:52;;;;;;;2.43;1.63;;;;;;;20.11;55.91;96846.22;5410322;26;20275;-27
2024/04/18 01:27:19;;;;;;;2.03;1.83;;;;;;;20.11;56.54;96848.78;5455988;26;20323;-28
2024/04/18 01:29:45;;;;;;;2.17;1.97;;;;;;;20.12;56.26;96841.97;5451914;26;20272;-26
2024/04/18 01:32:12;;;;;;;2.03;1.60;;;;;;;20.13;56.42;96853.97;5424873;26;20265;-25
2024/04/18 01:34:39;;;;;;;2.40;1.63;;;;;;;20.13;56.20;96859.91;5441050;26;20229;-26
2024/04/18 01:37:05;;;;;;;2.27;1.90;;;;;;;20.14;56.53;96861.66;5432069;26;20757;-29
2024/04/18 01:39:32;;;;;;;2.10;1.83;;;;;;;20.15;56.62;96854.84;5424476;26;20737;-27
2024/04/18 01:41:59;;;;;;;2.10;1.87;;;;;;;20.15;56.57;96865.03;5435037;26;20235;-26
2024/04/18 01:44:25;;;;;;;2.90;1.83;;;;;;;20.14;56.14;96856.53;5452110;26;20674;-27
2024/04/18 01:46:52;;;;;;;1.97;1.70;;;;;;;20.15;55.85;96867.59;5422032;26;20580;-28
2024/04/18 01:49:19;;;;;;;2.07;1.80;;;;;;;20.15;56.55;96859.94;5447915;26;20230;-27
2024/04/18 01:51:45;;;;;;;2.10;1.80;;;;;;;20.15;55.60;96859.94;5437992;26;20230;-30
2024/04/18 01:54:12;;;;;;;2.10;1.90;;;;;;;20.14;56.16;96855.66;5476358;26;20235;-26
2024/04/18 01:56:39;;;;;;;1.73;1.60;;;;;;;20.14;56.28;96861.66;5431204;26;20325;-27
2024/04/18 01:59:05;;;;;;;1.73;1.63;;;;;;;20.14;56.04;96859.09;5427370;26;20735;-26
2024/04/18 02:01:32;;;;;;;2.13;1.90;;;;;;;20.14;56.14;96855.66;5441684;26;20740;-26
2024/04/18 02:03:59;;;;;;;2.33;1.87;;;;;;;20.14;56.11;96866.75;5449783;26;20293;-27
2024/04/18 02:06:26;;;;;;;2.63;1.67;;;;;;;20.13;56.24;96865.00;5426506;26;20659;-27
2024/04/18 02:08:53;;;;;;;1.70;1.60;;;;;;;20.13;55.96;96869.25;5435569;26;20321;-28
2024/04/18 02:11:19;;;;;;;1.93;1.53;;;;;;;20.13;56.04;96870.09;5440845;26;20229;-26
2024/04/18 02:13:46;;;;;;;1.90;1.70;;;;;;;20.12;56.03;96862.38;5436738;26;20230;-26
2024/04/18 02:16:13;;;;;;;1.70;1.60;;;;;;;20.12;56.18;96867.47;5440785;26;20234;-26
2024/04/18 02:18:39;;;;;;;2.07;1.87;;;;;;;20.13;56.46;96866.72;5437363;26;20273;-27
2024/04/18 02:21:06;;;;;;;1.80;1.60;;;;;;;20.11;55.92;96869.19;5426653;26;20331;-26
2024/04/18 02:23:33;;;;;;;1.90;1.60;;;;;;;20.11;55.96;96871.75;5431049;26;20234;-26
2024/04/18 02:25:59;;;;;;;1.90;1.80;;;;;;;20.12;56.39;96872.59;5426898;26;20234;-27
2024/04/18 02:28:26;;;;;;;1.70;1.60;;;;;;;20.12;55.91;96875.13;5419714;26;20230;-27
2024/04/18 02:30:53;;;;;;;2.77;1.83;;;;;;;20.12;56.03;96878.56;5448297;26;20233;-28
2024/04/18 02:33:19;;;;;;;1.53;1.43;;;;;;;20.13;56.12;96867.56;5437242;26;20308;-27
2024/04/18 02:35:47;;;;;;;2.60;1.80;;;;;;;20.14;56.46;96876.94;5452851;26;20571;-28
2024/04/18 02:38:13;;;;;;;1.90;1.70;;;;;;;20.14;56.02;96871.84;5427096;26;20230;-27
2024/04/18 02:40:40;;;;;;;2.00;1.80;;;;;;;20.14;56.48;96874.41;5432023;26;20272;-28
2024/04/18 02:43:07;;;;;;;1.63;1.53;;;;;;;20.14;56.29;96879.50;5425797;26;20231;-28
2024/04/18 02:45:33;;;;;;;1.70;1.60;;;;;;;20.13;56.43;96869.25;5434030;26;20265;-27
2024/04/18 02:48:00;;;;;;;2.10;1.90;;;;;;;20.14;56.30;96870.97;5445317;26;20225;-25
2024/04/18 02:50:27;;;;;;;2.77;2.00;;;;;;;20.14;55.87;96870.97;5439182;26;20271;-26
2024/04/18 02:52:53;;;;;;;2.23;1.80;;;;;;;20.13;56.23;96875.22;5448512;26;20273;-28
2024/04/18 02:55:21;;;;;;;3.20;1.80;;;;;;;20.12;56.32;96873.47;5427412;26;20238;-27
2024/04/18 02:57:47;;;;;;;2.13;1.90;;;;;;;20.13;56.35;96874.38;5450793;26;20308;-26
2024/04/18 03:00:14;;;;;;;1.77;1.67;;;;;;;20.11;56.15;96876.84;5426187;26;20297;-25
2024/04/18 03:02:41;;;;;;;2.90;1.93;;;;;;;20.11;55.90;96878.53;5450974;26;20267;-28
2024/04/18 03:05:08;;;;;;;2.07;1.87;;;;;;;20.08;56.09;96868.25;5424366;26;20624;-28
2024/04/18 03:07:34;;;;;;;1.70;1.60;;;;;;;20.11;56.52;96879.41;5428904;26;20226;-27
2024/04/18 03:10:01;;;;;;;1.80;1.70;;;;;;;20.11;56.46;96874.28;5451276;26;20234;-26
2024/04/18 03:12:28;;;;;;;2.10;1.47;;;;;;;20.11;56.29;96879.41;5442793;26;20658;-27
2024/04/18 03:14:54;;;;;;;1.60;1.50;;;;;;;20.12;55.91;96875.13;5442993;26;20275;-26
2024/04/18 03:17:21;;;;;;;1.67;1.57;;;;;;;20.12;56.41;96882.78;5437664;26;20225;-26
2024/04/18 03:19:48;;;;;;;1.67;1.57;;;;;;;20.08;56.24;96869.13;5429498;26;20580;-29
2024/04/18 03:22:16;;;;;;;1.70;1.60;;;;;;;20.09;55.96;96877.59;5432311;26;20249;-27
2024/04/18 03:24:42;;;;;;;2.33;1.70;;;;;;;20.10;56.48;96880.19;5426619;26;20748;-28
2024/04/18 03:27:09;;;;;;;1.87;1.77;;;;;;;20.11;56.52;96875.97;5445297;26;20237;-27
2024/04/18 03:29:36;;;;;;;2.20;1.60;;;;;;;20.11;56.47;96876.84;5442421;26;20269;-28
2024/04/18 03:32:03;;;;;;;1.90;1.63;;;;;;;20.13;56.55;96884.56;5425968;26;20230;-28
2024/04/18 03:34:30;;;;;;;1.90;1.70;;;;;;;20.05;56.07;96866.50;5432107;26;20270;-26
2024/04/18 03:36:57;;;;;;;2.63;1.90;;;;;;;20.14;55.88;96882.06;5420503;26;20223;-27
2024/04/18 03:39:27;;;;;;;1.70;1.60;;;;;;;20.13;56.40;96882.84;5430024;26;20235;-26
2024/04/18 03:41:54;;;;;;;1.63;1.53;;;;;;;20.13;56.39;96887.97;5417512;26;20269;-27
2024/04/18 03:44:20;;;;;;;1.83;1.70;;;;;;;20.12;56.22;96885.34;5430819;26;20234;-28
2024/04/18 03:46:47;;;;;;;2.00;1.60;;;;;;;20.11;55.97;96878.53;5423865;26;20235;-30
2024/04/18 03:49:14;;;;;;;1.80;1.70;;;;;;;20.11;56.21;96889.59;5439665;26;20234;-26
2024/04/18 03:51:40;;;;;;;1.60;1.50;;;;;;;20.12;56.16;96885.34;5424840;26;20231;-28
2024/04/18 03:54:07;;;;;;;2.03;1.77;;;;;;;20.11;56.30;96884.50;5422145;26;20289;-28
2024/04/18 03:56:35;;;;;;;1.67;1.57;;;;;;;20.11;55.88;96883.63;5437457;26;20264;-27
2024/04/18 03:59:01;;;;;;;1.70;1.60;;;;;;;20.11;56.12;96894.69;5426627;26;20231;-27
2024/04/18 04:01:29;;;;;;;2.03;1.60;;;;;;;20.11;56.42;96893.81;5428621;26;20229;-26
2024/04/18 04:03:56;;;;;;;1.50;1.40;;;;;;;20.12;56.24;96900.66;5428542;26;20854;-27
2024/04/18 04:06:23;;;;;;;1.57;1.47;;;;;;;20.11;55.83;96898.94;5428387;26;20385;-25
2024/04/18 04:08:50;;;;;;;1.70;1.60;;;;;;;20.12;56.43;96900.66;5429019;26;20246;-28
2024/04/18 04:11:18;;;;;;;1.73;1.53;;;;;;;20.10;55.97;96905.72;5429402;26;20264;-27
2024/04/18 04:13:44;;;;;;;4.23;1.60;;;;;;;20.11;55.92;96911.69;5426501;26;20836;-26
2024/04/18 04:16:11;;;;;;;1.60;1.50;;;;;;;20.07;56.35;96908.19;5432123;26;20663;-26
2024/04/18 04:18:38;;;;;;;3.13;1.40;;;;;;;20.08;56.14;96911.59;5432534;26;20301;-27
2024/04/18 04:21:05;;;;;;;1.70;1.60;;;;;;;20.09;56.46;96913.31;5440763;26;20229;-27
2024/04/18 04:23:32;;;;;;;1.60;1.50;;;;;;;20.10;56.36;96915.06;5430627;26;20250;-27
2024/04/18 04:26:00;;;;;;;2.10;1.60;;;;;;;20.10;56.24;96917.63;5426691;26;20225;-26
2024/04/18 04:28:26;;;;;;;1.70;1.60;;;;;;;20.13;56.45;96923.66;5454032;26;20238;-27
2024/04/18 04:30:53;;;;;;;2.10;1.83;;;;;;;20.15;56.28;96922.03;5429447;26;20233;-28
2024/04/18 04:33:19;;;;;;;3.33;1.60;;;;;;;20.16;56.40;96925.47;5430073;26;20247;-26
2024/04/18 04:35:46;;;;;;;1.90;1.60;;;;;;;20.17;55.74;96937.38;5430784;26;20234;-26
2024/04/18 04:38:13;;;;;;;4.10;1.73;;;;;;;20.17;56.39;96935.69;5421588;26;20234;-28
2024/04/18 04:40:39;;;;;;;2.17;1.90;;;;;;;20.17;55.66;96938.25;5432092;26;20304;-30
2024/04/18 04:43:07;;;;;;;2.30;1.90;;;;;;;20.17;56.25;96930.59;5433614;26;20237;-27
2024/04/18 04:45:33;;;;;;;2.83;1.77;;;;;;;20.19;56.18;96940.84;5442032;26;20271;-27
2024/04/18 04:48:00;;;;;;;4.57;1.80;;;;;;;20.18;55.89;96942.53;5433287;26;20720;-30
2024/04/18 04:50:28;;;;;;;3.07;1.93;;;;;;;20.18;55.76;96945.06;5424415;26;20241;-27
2024/04/18 04:52:55;;;;;;;4.40;1.83;;;;;;;20.11;55.90;96929.53;5428587;26;20599;-25
2024/04/18 04:55:22;;;;;;;4.20;2.10;;;;;;;20.20;56.41;96952.75;5422484;26;20996;-35
2024/04/18 04:57:48;;;;;;;3.77;1.93;;;;;;;20.18;56.18;96947.63;5432445;26;20280;-26
2024/04/18 05:00:15;;;;;;;1.87;1.67;;;;;;;20.20;56.28;96955.31;5429597;26;20590;-26
2024/04/18 05:02:42;;;;;;;3.03;1.90;;;;;;;20.19;56.20;96953.59;5448543;26;20267;-32
2024/04/18 05:05:11;;;;;;;2.03;1.53;;;;;;;20.19;55.65;96964.66;5447614;26;20305;-26
2024/04/18 05:07:38;;;;;;;2.13;1.93;;;;;;;20.19;55.56;96963.81;5436407;26;20313;-28
2024/04/18 05:10:06;;;;;;;2.80;2.00;;;;;;;20.17;55.58;96968.88;5450332;26;20264;-27
2024/04/18 05:12:32;;;;;;;2.50;1.80;;;;;;;20.16;55.61;96967.13;5435463;26;20250;-26
2024/04/18 05:14:59;;;;;;;3.13;1.77;;;;;;;20.18;56.07;96974.81;5430281;26;20354;-31
2024/04/18 05:17:26;;;;;;;3.77;1.70;;;;;;;20.18;55.55;96977.38;5442858;26;20294;-26
2024/04/18 05:19:53;;;;;;;2.00;1.77;;;;;;;20.18;55.83;96972.25;5442982;26;20261;-29
2024/04/18 05:22:19;;;;;;;1.80;1.70;;;;;;;20.18;56.28;96983.34;5435326;26;20391;-26
2024/04/18 05:24:46;;;;;;;3.17;1.70;;;;;;;20.18;56.01;96985.91;5435282;26;20760;-26
2024/04/18 05:27:13;;;;;;;2.10;2.00;;;;;;;20.18;53.93;96983.34;5432911;26;20281;-28
2024/04/18 05:32:26;;;;;;;5.53;3.00;;;;;;;20.15;50.78;96983.25;5439255;26;20235;-26
2024/04/18 05:34:53;;;;;;;2.80;2.60;;;;;;;20.15;51.41;96996.00;5447696;26;20245;-26
2024/04/18 05:37:19;;;;;;;7.33;2.90;;;;;;;20.14;51.80;96994.31;5451560;26;20257;-28
2024/04/18 05:39:49;;;;;;;4.63;2.83;;;;;;;20.07;52.52;96982.16;5447532;26;20337;-30
2024/04/18 05:42:15;;;;;;;4.80;3.10;;;;;;;20.12;52.15;96989.94;5441092;26;20607;-30
2024/04/18 05:44:42;;;;;;;3.90;2.80;;;;;;;20.11;52.16;96993.31;5430179;26;20290;-27
2024/04/18 05:47:09;;;;;;;3.73;3.30;;;;;;;20.09;49.48;96992.41;5435211;26;20230;-27
2024/04/18 05:49:36;;;;;;;4.10;3.70;;;;;;;20.10;50.66;96999.25;5421203;26;20716;-26
2024/04/18 05:52:02;;;;;;;6.97;3.40;;;;;;;20.10;51.41;97001.78;5422654;26;20234;-32
2024/04/18 05:54:30;;;;;;;3.87;3.47;;;;;;;20.08;51.22;97004.31;5448182;26;20335;-27
2024/04/18 05:56:57;;;;;;;5.63;3.73;;;;;;;20.09;51.68;97011.13;5427258;26;20419;-34
2024/04/18 05:59:24;;;;;;;4.57;3.20;;;;;;;20.09;51.95;97011.13;5426718;26;20281;-25
2024/04/18 06:01:50;;;;;;;3.43;3.13;;;;;;;20.10;52.93;97009.44;5426290;26;20273;-28
2024/04/18 06:04:17;;;;;;;3.47;2.80;;;;;;;20.10;52.57;97012.00;5433871;26;20342;-32
2024/04/18 06:06:44;;;;;;;4.20;3.00;;;;;;;20.10;53.24;97019.66;5436411;26;20646;-34
2024/04/18 06:09:11;;;;;;;3.80;2.50;;;;;;;20.11;53.12;97027.34;5433248;26;20235;-33
2024/04/18 06:11:42;;;;;;;3.40;3.10;;;;;;;20.09;53.55;97021.34;5435161;26;20609;-26
2024/04/18 06:14:09;;;;;;;3.43;2.73;;;;;;;20.11;53.30;97029.03;5420291;26;20274;-28
2024/04/18 06:16:35;;;;;;;3.27;2.90;;;;;;;20.12;53.14;97028.19;5433557;26;20235;-32
2024/04/18 06:19:03;;;;;;;3.20;2.57;;;;;;;20.14;53.72;97031.69;5440219;26;20285;-25
2024/04/18 06:21:29;;;;;;;3.10;2.80;;;;;;;20.15;53.88;97036.84;5442872;26;20235;-34
2024/04/18 06:23:56;;;;;;;3.30;2.70;;;;;;;20.16;53.14;97030.91;5417130;26;20904;-28
2024/04/18 06:26:23;;;;;;;3.37;3.07;;;;;;;20.17;53.86;97041.97;5428698;26;20272;-27
2024/04/18 06:28:50;;;;;;;3.27;2.77;;;;;;;20.17;53.91;97039.44;5437362;26;20262;-32
2024/04/18 06:31:16;;;;;;;2.83;2.57;;;;;;;20.15;53.44;97030.84;5444039;26;20226;-31
2024/04/18 06:33:45;;;;;;;3.40;2.77;;;;;;;20.17;54.15;97045.41;5428590;26;20644;-35
2024/04/18 06:36:11;;;;;;;2.87;2.60;;;;;;;20.16;53.82;97038.56;5428283;26;20252;-27
2024/04/18 06:38:39;;;;;;;2.87;2.67;;;;;;;20.15;53.76;97039.38;5445027;26;20260;-27
2024/04/18 06:41:06;;;;;;;3.10;2.80;;;;;;;20.15;53.74;97052.16;5439730;26;20584;-26
2024/04/18 06:43:33;;;;;;;3.33;2.67;;;;;;;20.16;54.02;97053.84;5411438;26;20289;-27
2024/04/18 06:46:00;;;;;;;2.83;2.40;;;;;;;20.15;53.84;97052.16;5438977;26;20277;-27
2024/04/18 06:48:27;;;;;;;3.33;2.77;;;;;;;20.16;53.95;97056.41;5422318;26;20285;-26
2024/04/18 06:50:54;;;;;;;3.23;2.80;;;;;;;20.17;54.14;97062.38;5435241;26;20342;-26
2024/04/18 06:53:20;;;;;;;3.33;2.87;;;;;;;20.16;54.63;97058.97;5442246;26;20230;-29
2024/04/18 06:55:47;;;;;;;3.67;2.80;;;;;;;20.16;54.62;97064.06;5425258;26;20234;-26
2024/04/18 06:58:14;;;;;;;4.20;2.80;;;;;;;20.17;54.44;97067.50;5417573;26;20651;-27
2024/04/18 07:00:41;;;;;;;2.80;2.60;;;;;;;20.16;54.08;97066.63;5426222;26;20812;-28
2024/04/18 07:03:11;;;;;;;3.40;2.87;;;;;;;20.17;54.01;97070.91;5432140;26;20289;-30
2024/04/18 07:05:39;;;;;;;2.73;2.47;;;;;;;20.17;54.13;97078.56;5422627;26;20233;-27
2024/04/18 07:08:05;;;;;;;2.63;2.43;;;;;;;20.17;54.25;97076.03;5423504;26;20234;-27
2024/04/18 07:10:33;;;;;;;4.40;2.90;;;;;;;20.18;54.17;97082.84;5424890;26;20328;-33
2024/04/18 07:12:59;;;;;;;2.60;2.40;;;;;;;20.19;54.18;97083.72;5425002;26;20238;-35
2024/04/18 07:15:26;;;;;;;3.10;2.80;;;;;;;20.19;54.08;97079.44;5418586;26;20239;-26
2024/04/18 07:17:54;;;;;;;2.80;2.47;;;;;;;20.21;54.79;97088.03;5439539;26;20265;-30
2024/04/18 07:20:21;;;;;;;3.67;2.53;;;;;;;20.18;54.52;97082.84;5425779;26;20699;-26
2024/04/18 07:22:48;;;;;;;2.67;2.40;;;;;;;20.23;54.24;97093.16;5431111;26;20629;-27
2024/04/18 07:25:16;;;;;;;5.27;2.80;;;;;;;20.22;54.55;97094.84;5429860;26;20335;-30
2024/04/18 07:27:42;;;;;;;3.07;2.60;;;;;;;20.21;54.61;97090.56;5424449;26;20268;-34
2024/04/18 07:30:09;;;;;;;8.33;2.80;;;;;;;20.21;55.00;97095.69;5428840;26;20230;-34
2024/04/18 07:32:36;;;;;;;2.70;2.50;;;;;;;20.22;54.57;97101.66;5429021;26;20354;-30
2024/04/18 07:35:03;;;;;;;2.70;2.50;;;;;;;20.21;54.60;97102.47;5425967;26;20260;-29
2024/04/18 07:37:30;;;;;;;3.50;2.57;;;;;;;20.22;54.74;97104.22;5424098;26;20784;-27
2024/04/18 07:40:01;;;;;;;3.93;2.50;;;;;;;20.22;54.84;97114.41;5429188;26;20642;-29
2024/04/18 07:42:28;;;;;;;2.97;2.40;;;;;;;20.21;54.60;97118.66;5426480;26;20235;-28
2024/04/18 07:44:54;;;;;;;3.40;2.53;;;;;;;20.21;54.70;97116.09;5428575;26;20243;-27
2024/04/18 07:47:23;;;;;;;3.00;2.60;;;;;;;20.20;54.76;97122.03;5426619;26;20226;-26
2024/04/18 07:49:50;;;;;;;2.70;2.50;;;;;;;20.21;55.09;97121.19;5449706;26;20264;-28
2024/04/18 07:52:17;;;;;;;3.40;2.37;;;;;;;20.21;54.65;97120.31;5434622;26;20226;-28
2024/04/18 07:54:44;;;;;;;2.80;2.27;;;;;;;20.20;55.26;97122.03;5442153;26;20279;-27
2024/04/18 07:57:11;;;;;;;5.53;2.70;;;;;;;20.21;55.22;97133.06;5437066;26;20229;-29
2024/04/18 07:59:39;;;;;;;2.93;2.60;;;;;;;20.20;55.12;97132.22;5428845;26;20264;-30
2024/04/18 08:02:07;;;;;;;3.20;2.50;;;;;;;20.20;55.40;97131.34;5433435;26;20265;-27
2024/04/18 08:04:36;;;;;;;3.47;2.30;;;;;;;20.19;54.72;97133.03;5425796;26;20235;-28
2024/04/18 08:07:22;;;;;;;3.43;2.70;;;;;;;20.20;55.50;97145.00;5446831;26;20278;-29
2024/04/18 08:09:54;;;;;;;3.63;2.30;;;;;;;20.19;55.02;97145.78;5429878;26;20245;-27
2024/04/18 08:12:26;;;;;;;2.97;2.40;;;;;;;20.21;55.25;97145.84;5439021;26;20230;-27
2024/04/18 08:14:58;;;;;;;2.87;2.40;;;;;;;20.21;54.91;97156.91;5433754;26;20246;-29
2024/04/18 08:17:33;;;;;;;2.93;2.60;;;;;;;20.20;54.77;97146.66;5429924;26;20237;-27
2024/04/18 08:20:00;;;;;;;2.60;2.40;;;;;;;20.21;54.83;97156.03;5430516;26;20835;-31
2024/04/18 08:22:26;;;;;;;3.20;2.67;;;;;;;20.20;54.83;97160.31;5429067;26;20235;-25
2024/04/18 08:24:53;;;;;;;3.47;2.40;;;;;;;20.20;55.40;97160.31;5418683;26;20808;-29
2024/04/18 08:27:20;;;;;;;3.03;2.30;;;;;;;20.19;55.42;97167.91;5423031;26;20571;-33
2024/04/18 08:29:47;;;;;;;3.00;2.70;;;;;;;20.19;54.96;97161.09;5424630;26;20325;-27
2024/04/18 08:32:14;;;;;;;2.37;2.17;;;;;;;20.19;55.51;97162.81;5416208;26;20781;-28
2024/04/18 08:34:40;;;;;;;3.00;2.40;;;;;;;19.94;55.30;97133.13;5366043;26;20255;-29
2024/04/18 08:37:10;;;;;;;2.90;2.20;;;;;;;20.19;55.13;97175.56;5372331;26;20288;-30
2024/04/18 08:39:37;;;;;;;3.33;2.43;;;;;;;20.18;55.11;97174.69;5371100;26;20294;-27
2024/04/18 08:42:04;;;;;;;3.20;2.57;;;;;;;20.18;55.24;97184.91;5362696;26;20249;-29
2024/04/18 08:44:30;;;;;;;4.20;2.70;;;;;;;20.18;55.63;97182.34;5368882;26;20239;-29
2024/04/18 08:46:57;;;;;;;3.93;2.60;;;;;;;20.19;55.69;97193.44;5365486;26;20264;-32
2024/04/18 08:49:24;;;;;;;3.47;2.77;;;;;;;20.17;52.68;97190.81;5368182;26;20231;-27
2024/04/18 08:51:51;;;;;;;3.37;3.07;;;;;;;20.14;49.99;97184.75;5326893;26;20271;-28
2024/04/18 08:54:18;;;;;;;3.83;3.27;;;;;;;20.14;49.86;97193.28;5356910;26;20237;-31
2024/04/18 08:56:50;;;;;;;3.30;3.00;;;;;;;20.15;50.66;97189.03;5366604;26;20241;-26
2024/04/18 08:59:17;;;;;;;4.90;2.83;;;;;;;20.14;51.35;97184.75;5366536;26;20586;-27
2024/04/18 09:01:44;;;;;;;3.77;2.80;;;;;;;20.19;52.72;97188.31;5356741;26;20739;-29
2024/04/18 09:04:10;;;;;;;3.50;2.80;;;;;;;20.22;52.88;97191.81;5367717;26;20294;-38
2024/04/18 09:06:37;;;;;;;4.23;2.80;;;;;;;20.24;52.73;97200.38;5368271;26;20663;-28
2024/04/18 09:09:08;;;;;;;4.90;2.70;;;;;;;20.25;53.45;97197.00;5374639;26;20291;-29
2024/04/18 09:11:35;;;;;;;4.40;3.10;;;;;;;20.26;53.93;97193.66;5374282;26;20228;-27
2024/04/18 09:14:02;;;;;;;3.17;2.47;;;;;;;20.28;53.74;97199.63;5361779;26;20694;-32
2024/04/18 09:16:29;;;;;;;4.50;2.50;;;;;;;20.27;54.67;97202.16;5362065;26;20229;-28
2024/04/18 09:18:56;;;;;;;8.60;2.80;;;;;;;20.28;54.00;97198.78;5355957;26;20236;-27
2024/04/18 09:21:26;;;;;;;5.00;2.90;;;;;;;20.28;54.02;97207.28;5368908;26;20239;-27
2024/04/18 09:23:53;;;;;;;2.93;2.50;;;;;;;20.27;54.27;97197.03;5371455;26;21066;-26
2024/04/18 09:26:20;;;;;;;5.97;3.10;;;;;;;20.31;54.75;97201.44;5375081;26;20254;-27
2024/04/18 09:28:47;;;;;;;5.00;2.80;;;;;;;20.31;54.63;97204.84;5375443;26;20236;-28
2024/04/18 09:31:13;;;;;;;4.83;2.50;;;;;;;20.31;54.90;97209.94;5364609;26;20244;-27
2024/04/18 09:33:44;;;;;;;4.20;2.93;;;;;;;20.31;55.42;97206.53;5345607;26;20261;-26
2024/04/18 09:36:11;;;;;;;6.83;2.77;;;;;;;20.30;55.64;97208.22;5373762;26;20849;-29
2024/04/18 09:38:38;;;;;;;5.70;2.57;;;;;;;20.30;55.45;97207.34;5327843;26;20340;-28
2024/04/18 09:41:14;;;;;;;7.23;2.40;;;;;;;20.28;55.41;97202.19;5337382;26;20283;-28
2024/04/18 09:44:36;;;;;;;3.47;2.33;;;;;;;20.29;55.63;97211.59;5367295;26;20317;-31
2024/04/18 09:47:03;;;;;;;4.87;2.83;;;;;;;20.29;55.78;97216.69;5351961;26;20240;-34
2024/04/18 09:49:29;;;;;;;4.80;2.43;;;;;;;20.29;55.37;97215.81;5368025;26;20227;-27
2024/04/18 09:51:56;;;;;;;5.07;2.63;;;;;;;20.27;55.66;97214.91;5372244;26;20235;-29
2024/04/18 09:54:23;;;;;;;2.93;2.30;;;;;;;20.27;55.20;97213.22;5366589;26;20723;-35
2024/04/18 09:56:50;;;;;;;6.47;2.77;;;;;;;20.27;55.68;97210.69;5373476;26;20267;-31
2024/04/18 09:59:16;;;;;;;4.80;2.90;;;;;;;20.28;55.78;97212.41;5352016;26;20268;-32
2024/04/18 10:01:43;;;;;;;4.17;2.47;;;;;;;20.27;55.49;97208.13;5344424;26;20266;-29
2024/04/18 10:04:10;;;;;;;4.37;2.33;;;;;;;20.29;55.44;97218.38;5366512;26;20235;-27
2024/04/18 10:06:39;;;;;;;4.23;2.87;;;;;;;20.31;55.58;97222.69;5369310;26;20589;-28
2024/04/18 10:09:06;;;;;;;4.43;2.70;;;;;;;20.30;55.01;97232.84;5334093;26;20833;-27
2024/04/18 10:11:33;;;;;;;3.07;2.33;;;;;;;20.27;55.30;97222.56;5352308;26;20736;-29
2024/04/18 10:14:01;;;;;;;3.70;2.20;;;;;;;20.29;55.49;97226.91;5362462;26;20286;-30
2024/04/18 10:16:28;;;;;;;4.77;2.43;;;;;;;20.28;55.05;97225.16;5362272;26;20236;-29
2024/04/18 10:18:55;;;;;;;2.43;2.10;;;;;;;20.28;55.04;97230.25;5362761;26;20763;-29
2024/04/18 10:21:21;;;;;;;4.27;2.57;;;;;;;20.28;55.01;97231.97;5363882;26;20252;-33
2024/04/18 10:24:06;;;;;;;3.23;2.60;;;;;;;20.20;55.50;97220.66;5368575;26;20282;-35
2024/04/18 10:26:34;;;;;;;3.93;2.13;;;;;;;20.25;55.69;97230.16;5366630;26;20243;-37
2024/04/18 10:29:01;;;;;;;3.23;2.33;;;;;;;20.26;55.09;97236.16;5374584;26;20232;-34
2024/04/18 10:31:28;;;;;;;3.00;2.20;;;;;;;20.27;54.89;97238.75;5374241;26;20236;-30
2024/04/18 10:33:55;;;;;;;3.40;2.50;;;;;;;20.24;54.81;97230.13;5370946;26;20290;-28
2024/04/18 10:36:21;;;;;;;5.03;2.10;;;;;;;20.26;55.07;97231.91;5372139;26;20228;-32
2024/04/18 10:38:48;;;;;;;3.53;2.40;;;;;;;20.28;54.98;97232.81;5330885;26;20291;-29
2024/04/18 10:41:16;;;;;;;3.03;2.40;;;;;;;20.28;54.88;97219.22;5362494;26;20265;-26
2024/04/18 10:43:43;;;;;;;7.23;2.50;;;;;;;20.29;54.97;97216.69;5363974;26;20245;-28
2024/04/18 10:46:10;;;;;;;2.83;2.50;;;;;;;20.29;54.73;97219.25;5359001;26;20273;-32
2024/04/18 10:48:37;;;;;;;3.67;2.23;;;;;;;20.28;54.71;97211.56;5368739;26;20279;-27
2024/04/18 10:51:04;;;;;;;2.70;2.00;;;;;;;20.28;54.87;97214.94;5360701;26;20232;-27
2024/04/18 10:53:36;;;;;;;3.20;2.03;;;;;;;20.27;55.32;97215.78;5372855;26;20277;-26
2024/04/18 10:56:03;;;;;;;2.40;2.20;;;;;;;20.26;55.14;97220.84;5374484;26;20727;-30
2024/04/18 10:58:29;;;;;;;3.03;2.00;;;;;;;20.27;55.38;97218.34;5365432;26;20241;-29
2024/04/18 11:00:58;;;;;;;3.40;2.20;;;;;;;20.27;55.19;97213.22;5368709;26;20581;-27
2024/04/18 11:03:27;;;;;;;2.83;2.10;;;;;;;20.27;54.96;97212.34;5363021;26;20239;-29
2024/04/18 11:05:55;;;;;;;2.67;1.90;;;;;;;20.26;55.06;97211.50;5357607;26;20253;-26
2024/04/18 11:08:23;;;;;;;3.07;2.10;;;;;;;20.27;55.45;97212.34;5351887;26;20263;-29
2024/04/18 11:10:50;;;;;;;3.50;1.87;;;;;;;20.24;55.18;97209.72;5350452;26;20240;-32
2024/04/18 11:13:17;;;;;;;2.33;2.03;;;;;;;20.23;55.06;97206.31;5349705;26;20237;-26
2024/04/18 11:15:44;;;;;;;4.90;2.10;;;;;;;20.27;54.72;97203.03;5356816;26;20267;-26
2024/04/18 11:18:10;;;;;;;3.47;1.97;;;;;;;20.27;54.81;97208.13;5369137;26;20351;-26
2024/04/18 11:20:37;;;;;;;4.47;2.10;;;;;;;20.29;55.19;97203.06;5350714;26;20247;-32
2024/04/18 11:23:05;;;;;;;3.20;2.20;;;;;;;20.30;54.85;97202.22;5363427;26;20563;-30
2024/04/18 11:25:41;;;;;;;2.17;1.93;;;;;;;20.30;54.78;97194.56;5361083;26;20233;-28
2024/04/18 11:28:09;;;;;;;2.17;1.90;;;;;;;20.30;55.29;97197.13;5363719;26;20233;-26
2024/04/18 11:30:42;;;;;;;3.27;1.90;;;;;;;20.30;54.96;97194.56;5357310;26;20262;-29
2024/04/18 11:33:10;;;;;;;2.43;1.90;;;;;;;20.27;55.05;97195.38;5375855;26;20244;-28
2024/04/18 11:35:38;;;;;;;2.47;2.00;;;;;;;20.30;54.88;97192.03;5362767;26;20239;-33
2024/04/18 11:38:08;;;;;;;3.07;2.20;;;;;;;20.30;54.94;97197.13;5377985;26;20562;-30